Weather at Lloyd's Landing Airport [CLOSED]

Public forecast

Using degrees Fahrenheit for public forecast. Weather courtesy of forecast.io.

Closest aviation weather report (METAR) to Lloyd's Landing Airport

Closest report is General WM J Fox Airfield, 10.7 nm (19.8 km) SSE. Retrieved 2021/11/29 08:56 UTC (14 minutes ago):

KWJF 290856Z AUTO 00000KT 10SM CLR 03/M17 A3025 RMK AO2 SLP243 T00331167 58004

Closest aviation forecast (TAF) to Lloyd's Landing Airport

Closest forecast is General WM J Fox Airfield, 10.7 nm (19.8 km) SSE. Retrieved 2021/11/29 06:30 UTC (3 hours ago):

TAF KWJF 290528Z 2906/3006 VRB05KT P6SM SKC FM292000 05006KT P6SM SKC FM300200 27006KT P6SM SKC